Terminal Aerodrome Forecast
Issued by NWS

Home | Current Version | Previous Version | Text Only | Print | Product List | Glossary On
Versions: 1 2 3 4 5 6 7 8 9 10 11 12 13 14 15 16 17
000
FTUS43 KMQT 270520
TAFCMX
TAF
KCMX 270520Z 2706/2806 36009KT P6SM -SHSN BKN040
     FM271000 02005KT P6SM SCT040
     FM271700 34005KT P6SM SKC
     FM272300 30003KT P6SM SKC=

USA.gov is the U.S. government's official web portal to all federal, state and local government web resources and services.